Browns Valley, CA (95918)

2:46 AM PDT on May 07, 2015 (GMT -0700)
RAWS | | Change Station
CLOSE
Current Station
Personal Weather Station
Location: Bangor, CA
Elevation: 803 ft
Nearby Weather Stations

Elev 803 ft 39.38 °N, 121.39 °W | Updated 55 minutes ago

Overcast
Overcast
61 °F
Feels Like 61 °F
N
3
Wind Variable Wind from NNW
Gusts 8.0 mph

Today
High -- | Low -- °F
--% Chance of Precip.
Yesterday
High -- | Low -- °F
Precip. -- in
6:00 AM 8:04 PM
Waning Gibbous, 89% visible
Pressure 29.68 in
Visibility 10.0 miles
Clouds Few 4800 ft
Mostly Cloudy 13000 ft
Dew Point 31 °F
Humidity 32%
Rainfall in
Snow Depth Not available.
UV 0 out of 12
Pollen 7.20 out of 12
Air Quality Not available.
Flu Activity Sporadic
SPECI KBAB 070913Z 36007KT 10SM FEW048 BKN130 18/02 A2968 RMK AO2A

More Conditions Fewer Conditions

Pressure 29.68 in
Visibility 10.0 miles
Clouds Few 4800 ft
Mostly Cloudy 13000 ft
Dew Point 31 °F
Humidity 32%
Rainfall in
Snow Depth Not available.
UV 0 out of 12
Pollen 7.20 out of 12
Air Quality Not available.
Flu Activity Sporadic
SPECI KBAB 070913Z 36007KT 10SM FEW048 BKN130 18/02 A2968 RMK AO2A

More Conditions Fewer Conditions

10-Day Weather Forecast

Almanac

Astronomy

May. 07, 2015 Rise Set
Actual Time
Civil Twilight
Nautical Twilight
Astronomical Twilight
Moon
Length of Visible Light
Length of Day
Tomorrow will be .
, % of the Moon is Illuminated

Today's Extremes

State Highs State Lows

Community

WunderPhotos

Upload Photos

1,819,133 photos uploaded!

WunderBlogs® & News

Nearby

Air Quality

  Air Quality AQ Index Pollutant
Not available.

Snow Depth

Station Depth Elevation

Earthquake Activity

City Distance Mag. Time & Date
Minimum magnitude displayed is 2.5.

Coastal Water Temperatures

Place Temperature

Stations

Nearby Weather Stations

Station Location Temp. Windchill Dew Point Humidity Wind Precip. Elev Updated Type